Time;durP1;ratioP1;P1;durP2;ratioP2;P2;SDS_P1;SDS_P2;PMS_P1;PMS_P2;Temp;Humidity;BMP_temperature;BMP_pressure;BME280_temperature;BME280_humidity;BME280_pressure;Samples;Min_cycle;Max_cycle;Signal;HPM_P1;HPM_P2
2021/12/05 00:22:03;;;;;;;2.80;0.98;;;22.20;31.10;;;;;;5048129;28;20099;-47
2021/12/05 00:24:34;;;;;;;1.55;0.90;;;22.20;31.10;;;;;;5028174;28;20093;-51
2021/12/05 00:27:07;;;;;;;2.08;1.10;;;22.20;31.10;;;;;;5052904;28;20094;-47
2021/12/05 00:46:00;;;;;;;3.00;1.08;;;22.10;31.00;;;;;;5025888;28;20339;-52
2021/12/05 00:51:22;;;;;;;2.67;1.00;;;22.20;31.10;;;;;;5042361;28;20025;-56
2021/12/05 01:04:40;;;;;;;2.25;1.08;;;22.10;31.00;;;;;;4996671;28;20384;-48
2021/12/05 01:12:50;;;;;;;2.05;0.95;;;22.10;31.60;;;;;;4967037;28;20039;-52
2021/12/05 01:15:20;;;;;;;2.40;1.02;;;22.10;31.00;;;;;;4998531;28;20034;-50
2021/12/05 01:18:06;;;;;;;1.67;0.80;;;22.00;31.00;;;;;;5010209;28;20056;-54
2021/12/05 01:20:42;;;;;;;2.45;1.08;;;22.00;30.90;;;;;;5017920;28;20034;-55
2021/12/05 01:23:25;;;;;;;2.25;1.10;;;22.00;30.90;;;;;;4994382;28;20430;-53
2021/12/05 01:29:08;;;;;;;1.67;0.90;;;22.00;30.90;;;;;;4920450;29;20130;-54
2021/12/05 01:36:56;;;;;;;1.65;0.70;;;22.00;30.90;;;;;;5010388;28;20081;-57
2021/12/05 01:44:56;;;;;;;2.38;1.02;;;22.00;30.90;;;;;;5013687;28;20034;-48
2021/12/05 02:09:22;;;;;;;;;;;21.90;30.80;;;;;;5004481;28;20080;-51
2021/12/05 02:33:55;;;;;;;2.25;0.90;;;21.80;30.80;;;;;;5011216;28;20189;-46
2021/12/05 02:41:41;;;;;;;2.28;1.05;;;21.70;30.80;;;;;;5004616;28;20045;-53
2021/12/05 02:44:26;;;;;;;2.40;0.95;;;21.80;30.90;;;;;;5015660;28;20180;-56
2021/12/05 02:47:02;;;;;;;2.65;1.10;;;21.70;30.80;;;;;;5004600;28;20022;-49
2021/12/05 02:49:33;;;;;;;2.35;0.95;;;21.70;30.80;;;;;;4997935;28;20022;-53
2021/12/05 02:52:05;;;;;;;2.47;1.10;;;21.70;30.80;;;;;;5001562;28;20022;-55
2021/12/05 02:54:39;;;;;;;3.38;1.40;;;21.70;30.80;;;;;;5008474;28;20026;-53
2021/12/05 02:57:08;;;;;;;2.10;0.90;;;21.70;30.80;;;;;;5035708;28;20087;-52
2021/12/05 03:02:12;;;;;;;2.90;1.00;;;21.70;30.80;;;;;;5028886;28;20108;-50
2021/12/05 03:04:44;;;;;;;6.72;1.05;;;21.70;30.80;;;;;;5039490;28;20115;-57
2021/12/05 03:07:11;;;;;;;1.70;0.90;;;21.70;30.70;;;;;;5047311;28;20028;-55
2021/12/05 03:09:39;;;;;;;1.60;0.82;;;21.70;30.80;;;;;;5021548;28;20029;-52
2021/12/05 03:12:06;;;;;;;2.40;1.00;;;21.70;30.80;;;;;;5024249;28;20040;-51
2021/12/05 03:14:32;;;;;;;2.63;1.30;;;21.70;30.70;;;;;;5033774;28;20160;-52
2021/12/05 03:16:58;;;;;;;2.33;0.82;;;21.70;30.70;;;;;;5048913;28;20403;-51
2021/12/05 03:19:24;;;;;;;1.80;1.05;;;21.70;30.70;;;;;;5010098;28;20017;-51
2021/12/05 03:21:52;;;;;;;2.65;1.20;;;21.70;30.70;;;;;;5025090;28;20017;-51
2021/12/05 03:24:22;;;;;;;1.70;0.90;;;21.70;30.70;;;;;;5025651;28;20041;-49
2021/12/05 03:26:53;;;;;;;2.63;1.17;;;21.60;30.70;;;;;;5021823;28;20036;-55
2021/12/05 03:29:20;;;;;;;1.95;1.15;;;21.60;30.70;;;;;;5036267;28;20032;-50
2021/12/05 03:31:48;;;;;;;1.60;0.90;;;21.60;30.70;;;;;;5038357;28;20017;-51
2021/12/05 03:34:18;;;;;;;1.98;0.90;;;21.60;30.70;;;;;;5022414;28;20044;-50
2021/12/05 03:36:53;;;;;;;1.60;0.85;;;21.60;30.70;;;;;;5020119;28;20049;-52
2021/12/05 03:39:20;;;;;;;3.35;1.23;;;21.60;30.70;;;;;;5018360;28;20038;-53
2021/12/05 03:41:48;;;;;;;2.65;1.00;;;21.60;30.70;;;;;;5038048;28;20031;-52
2021/12/05 03:44:18;;;;;;;1.05;0.63;;;21.60;30.70;;;;;;5053199;28;20017;-55
2021/12/05 03:46:45;;;;;;;2.17;0.85;;;21.60;30.70;;;;;;5031572;28;20318;-52
2021/12/05 03:49:14;;;;;;;3.58;0.90;;;21.60;30.70;;;;;;5019019;28;20064;-51
2021/12/05 03:52:06;;;;;;;1.60;0.82;;;21.60;30.70;;;;;;5048470;28;20048;-52
2021/12/05 03:54:32;;;;;;;2.35;0.90;;;21.60;30.70;;;;;;5035112;28;20044;-52
2021/12/05 03:57:02;;;;;;;2.10;1.02;;;21.60;30.70;;;;;;5037693;28;20439;-49
2021/12/05 03:59:30;;;;;;;1.60;0.70;;;21.60;30.70;;;;;;5044598;28;20343;-53
2021/12/05 04:01:59;;;;;;;1.35;0.70;;;21.60;30.70;;;;;;5029168;28;20028;-53
2021/12/05 04:04:28;;;;;;;1.85;0.80;;;21.60;30.70;;;;;;5018815;28;20018;-47
2021/12/05 04:06:55;;;;;;;2.20;1.08;;;21.60;30.70;;;;;;5018950;28;20021;-50
2021/12/05 04:09:22;;;;;;;2.30;1.17;;;21.60;30.80;;;;;;5026494;28;20345;-52
2021/12/05 04:11:58;;;;;;;1.65;0.90;;;21.60;30.80;;;;;;5018823;28;20028;-52
2021/12/05 04:14:35;;;;;;;1.25;0.65;;;21.60;30.80;;;;;;5021038;28;20025;-53
2021/12/05 04:17:05;;;;;;;2.22;0.90;;;21.50;30.70;;;;;;5021525;28;20041;-49
2021/12/05 04:19:30;;;;;;;2.40;0.90;;;21.50;30.70;;;;;;5036542;28;20025;-54
2021/12/05 04:22:00;;;;;;;1.58;0.85;;;21.60;30.70;;;;;;5017379;28;20014;-53
2021/12/05 04:24:26;;;;;;;2.70;1.30;;;21.50;30.70;;;;;;5031309;28;20048;-51
2021/12/05 04:26:53;;;;;;;2.20;0.95;;;21.50;30.80;;;;;;5035024;28;20390;-54
2021/12/05 04:29:19;;;;;;;1.27;0.77;;;21.50;30.70;;;;;;5027404;28;20470;-53
2021/12/05 04:31:45;;;;;;;2.63;0.80;;;21.50;30.70;;;;;;5017112;28;20021;-56
2021/12/05 04:34:12;;;;;;;2.17;0.85;;;21.50;30.80;;;;;;5021673;28;20021;-51
2021/12/05 04:36:40;;;;;;;2.63;0.85;;;21.50;30.80;;;;;;5027070;28;20037;-55
2021/12/05 04:39:06;;;;;;;1.67;0.80;;;21.50;30.80;;;;;;5021973;28;20417;-53
2021/12/05 04:41:32;;;;;;;1.10;0.60;;;21.50;30.80;;;;;;5035571;28;20467;-51
2021/12/05 04:44:01;;;;;;;1.48;0.85;;;21.50;30.90;;;;;;5025418;28;20341;-47
2021/12/05 04:46:28;;;;;;;2.08;0.75;;;21.50;30.90;;;;;;5023709;28;20036;-51
2021/12/05 04:48:56;;;;;;;1.25;0.60;;;21.40;30.80;;;;;;5041203;28;20027;-47
2021/12/05 04:51:35;;;;;;;1.10;0.75;;;21.40;30.80;;;;;;5031828;28;20021;-51
2021/12/05 04:54:03;;;;;;;1.60;0.65;;;21.50;30.90;;;;;;5028485;28;20428;-49
2021/12/05 04:56:30;;;;;;;1.20;0.52;;;21.40;30.90;;;;;;5038261;28;20359;-50
2021/12/05 04:58:57;;;;;;;0.73;0.45;;;21.40;30.90;;;;;;5046938;28;20437;-54
2021/12/05 05:01:28;;;;;;;1.23;0.60;;;21.40;30.90;;;;;;5023704;28;20040;-54
2021/12/05 05:03:54;;;;;;;1.88;0.65;;;21.40;30.90;;;;;;5052029;28;20375;-53
2021/12/05 05:06:22;;;;;;;1.23;0.68;;;21.40;30.90;;;;;;5043693;28;20429;-52
2021/12/05 05:08:52;;;;;;;1.95;0.70;;;21.40;30.90;;;;;;5032313;28;20128;-47
2021/12/05 05:11:22;;;;;;;1.70;0.80;;;21.40;30.90;;;;;;5045805;28;20024;-47
2021/12/05 05:13:49;;;;;;;1.92;1.00;;;21.40;30.90;;;;;;5036970;28;20102;-53
2021/12/05 05:16:16;;;;;;;0.75;0.50;;;21.40;30.90;;;;;;5035553;28;20324;-55
2021/12/05 05:18:48;;;;;;;1.60;0.70;;;21.40;31.00;;;;;;5047468;28;20344;-53
2021/12/05 05:43:07;;;;;;;1.13;0.63;;;21.30;31.10;;;;;;5044976;28;20521;-56
2021/12/05 05:45:44;;;;;;;1.38;0.70;;;21.30;31.20;;;;;;5041894;28;20057;-53
2021/12/05 05:50:37;;;;;;;1.25;0.60;;;21.30;31.10;;;;;;5040802;28;20025;-47
2021/12/05 05:53:03;;;;;;;0.95;0.50;;;21.30;31.10;;;;;;5046464;28;20282;-47
2021/12/05 05:55:30;;;;;;;1.30;0.70;;;21.30;31.20;;;;;;5049309;28;20064;-53
2021/12/05 05:58:10;;;;;;;1.00;0.43;;;21.30;31.10;;;;;;5041033;28;20029;-51
2021/12/05 06:00:42;;;;;;;1.23;0.60;;;21.30;31.10;;;;;;5033750;28;20028;-51
2021/12/05 06:03:21;;;;;;;1.33;0.68;;;21.30;31.20;;;;;;5040615;28;20040;-49
2021/12/05 06:05:53;;;;;;;0.70;0.52;;;21.30;31.20;;;;;;5022251;28;20049;-49
2021/12/05 06:08:22;;;;;;;1.23;0.52;;;21.30;31.20;;;;;;5046740;28;20065;-50
2021/12/05 06:10:48;;;;;;;1.02;0.50;;;21.30;31.20;;;;;;5052387;28;20032;-48
2021/12/05 06:13:18;;;;;;;1.23;0.70;;;21.30;31.20;;;;;;5052657;28;20390;-51
2021/12/05 06:15:45;;;;;;;1.17;0.40;;;21.30;31.20;;;;;;5048491;28;20052;-52
2021/12/05 06:18:11;;;;;;;1.33;0.50;;;21.30;31.20;;;;;;5053636;28;20098;-49
2021/12/05 06:20:37;;;;;;;0.93;0.40;;;21.30;31.20;;;;;;5044068;28;20041;-53
2021/12/05 06:23:02;;;;;;;0.93;0.60;;;21.30;31.20;;;;;;5043563;28;20420;-51
2021/12/05 06:25:32;;;;;;;1.55;0.70;;;21.30;31.20;;;;;;5045446;28;20029;-52
2021/12/05 06:28:02;;;;;;;1.55;0.60;;;21.30;31.30;;;;;;5051287;28;20036;-48
2021/12/05 06:30:45;;;;;;;0.80;0.50;;;21.30;31.30;;;;;;5047468;28;20037;-53
2021/12/05 06:41:18;;;;;;;0.95;0.40;;;21.20;31.30;;;;;;5044246;28;20021;-51
2021/12/05 06:48:49;;;;;;;0.77;0.50;;;21.20;31.30;;;;;;5045425;28;20025;-51
2021/12/05 06:51:21;;;;;;;0.55;0.40;;;21.20;31.30;;;;;;5054378;28;20017;-51
2021/12/05 06:53:47;;;;;;;0.75;0.45;;;21.20;31.40;;;;;;5049636;28;20028;-52
2021/12/05 06:56:13;;;;;;;1.90;0.60;;;21.20;31.40;;;;;;5044691;28;20041;-55
2021/12/05 06:58:40;;;;;;;1.05;0.40;;;21.20;31.40;;;;;;5020780;28;20391;-55
2021/12/05 07:01:09;;;;;;;1.52;0.50;;;21.20;31.40;;;;;;5054245;28;20332;-54
2021/12/05 07:03:36;;;;;;;0.98;0.30;;;21.20;31.40;;;;;;5048727;28;20053;-54
2021/12/05 07:08:34;;;;;;;1.13;0.40;;;21.20;31.40;;;;;;5041025;28;20395;-53
2021/12/05 07:11:12;;;;;;;1.40;0.50;;;21.20;31.50;;;;;;5043368;28;20026;-52
2021/12/05 07:16:22;;;;;;;1.30;0.60;;;21.20;31.50;;;;;;5049299;28;20072;-54
2021/12/05 07:19:07;;;;;;;0.73;0.40;;;21.20;31.50;;;;;;5038410;28;20029;-52
2021/12/05 07:21:46;;;;;;;0.35;0.28;;;21.10;31.50;;;;;;5043571;28;20068;-57
2021/12/05 07:24:26;;;;;;;0.88;0.40;;;21.10;31.50;;;;;;5039264;28;20018;-52
2021/12/05 07:40:26;;;;;;;0.73;0.50;;;21.10;31.70;;;;;;5043601;28;20087;-53
2021/12/05 07:42:59;;;;;;;0.73;0.40;;;21.10;31.70;;;;;;5051090;28;20408;-56
2021/12/05 07:45:33;;;;;;;0.20;0.20;;;21.10;31.70;;;;;;5035686;28;20100;-52
2021/12/05 07:48:13;;;;;;;1.02;0.40;;;21.10;31.70;;;;;;5051658;28;20104;-54
2021/12/05 07:50:50;;;;;;;0.77;0.45;;;21.10;31.70;;;;;;5050200;28;20500;-51
2021/12/05 07:53:32;;;;;;;0.55;0.32;;;21.10;31.70;;;;;;5036400;28;20377;-53
2021/12/05 07:56:06;;;;;;;0.40;0.20;;;21.10;31.70;;;;;;5041113;28;20041;-56
2021/12/05 07:59:05;;;;;;;0.45;0.40;;;21.00;31.70;;;;;;5035751;28;20040;-51
2021/12/05 08:15:22;;;;;;;0.95;0.30;;;21.00;31.70;;;;;;5055315;28;20301;-49
2021/12/05 08:17:57;;;;;;;0.90;0.32;;;21.00;31.70;;;;;;5055721;28;20155;-53
2021/12/05 08:20:29;;;;;;;0.30;0.20;;;21.00;31.70;;;;;;5042888;28;20348;-53
2021/12/05 08:22:56;;;;;;;0.63;0.28;;;21.00;31.60;;;;;;5044107;28;20112;-51
2021/12/05 08:25:28;;;;;;;1.20;0.30;;;21.00;31.60;;;;;;5054006;28;20111;-50
2021/12/05 08:28:04;;;;;;;1.38;0.30;;;21.00;31.60;;;;;;5054407;28;20082;-56
2021/12/05 08:30:34;;;;;;;0.35;0.20;;;21.00;31.70;;;;;;5054729;28;20428;-53
2021/12/05 08:36:14;;;;;;;0.88;0.40;;;21.00;31.90;;;;;;5055212;28;20051;-55
2021/12/05 08:41:51;;;;;;;0.50;0.32;;;21.00;31.90;;;;;;4974168;28;20039;-50
2021/12/05 10:37:16;;;;;;;0.30;0.20;;;23.60;31.10;;;;;;5020831;28;20049;-49
2021/12/05 10:39:43;;;;;;;0.90;0.40;;;23.70;31.00;;;;;;5052560;28;20076;-46
2021/12/05 10:42:37;;;;;;;0.47;0.30;;;23.80;31.00;;;;;;5056475;28;20050;-55
2021/12/05 10:45:07;;;;;;;1.90;0.60;;;23.80;30.90;;;;;;5056734;28;20391;-48
2021/12/05 10:47:45;;;;;;;0.47;0.20;;;23.70;31.00;;;;;;5055915;28;20024;-54
2021/12/05 10:50:27;;;;;;;2.17;0.40;;;23.70;31.00;;;;;;5054441;28;20099;-51
2021/12/05 10:53:34;;;;;;;0.35;0.30;;;23.60;31.00;;;;;;5054535;28;20009;-49
2021/12/05 10:56:05;;;;;;;0.32;0.20;;;23.70;31.00;;;;;;5041748;28;20045;-50
2021/12/05 10:58:36;;;;;;;0.40;0.20;;;23.70;31.00;;;;;;5055239;28;20059;-54
2021/12/05 11:01:22;;;;;;;0.30;0.20;;;23.70;30.90;;;;;;5055188;28;20017;-52
2021/12/05 11:04:00;;;;;;;0.40;0.30;;;23.70;30.70;;;;;;5055403;28;20456;-50
2021/12/05 11:06:31;;;;;;;0.20;0.20;;;23.70;30.90;;;;;;5039298;28;20104;-49
2021/12/05 11:09:00;;;;;;;0.90;0.50;;;23.70;31.00;;;;;;5056676;28;20025;-52
2021/12/05 11:11:27;;;;;;;1.27;0.60;;;23.70;31.10;;;;;;5056890;28;20060;-49
2021/12/05 11:13:53;;;;;;;2.35;1.25;;;23.70;31.30;;;;;;5056018;28;20079;-50
2021/12/05 11:16:42;;;;;;;2.72;1.50;;;23.70;31.60;;;;;;5056791;28;20037;-51
2021/12/05 11:19:24;;;;;;;4.57;1.98;;;23.80;32.00;;;;;;5050532;28;20037;-48
2021/12/05 11:21:57;;;;;;;4.30;2.30;;;23.70;32.20;;;;;;5056124;28;20040;-52
2021/12/05 11:24:30;;;;;;;4.45;2.60;;;23.70;32.50;;;;;;5056635;28;20021;-57
2021/12/05 11:27:16;;;;;;;6.57;2.97;;;23.70;32.90;;;;;;5056016;28;20336;-54
2021/12/05 11:29:45;;;;;;;7.53;3.50;;;23.70;33.20;;;;;;5057120;28;20428;-56
2021/12/05 11:32:15;;;;;;;8.15;2.88;;;23.70;33.40;;;;;;5050758;28;20052;-58
2021/12/05 11:34:41;;;;;;;8.07;3.42;;;23.70;33.40;;;;;;5038398;28;20167;-52
2021/12/05 11:37:06;;;;;;;8.65;3.40;;;23.70;34.20;;;;;;5055881;28;20048;-49
2021/12/05 11:39:32;;;;;;;7.35;3.85;;;23.70;33.80;;;;;;5056496;28;20063;-56
2021/12/05 11:41:58;;;;;;;7.68;3.30;;;23.60;34.20;;;;;;5038369;28;20436;-47
2021/12/05 11:44:25;;;;;;;7.18;3.00;;;23.60;34.50;;;;;;5055866;28;20028;-48
2021/12/05 11:46:52;;;;;;;6.68;2.50;;;23.70;34.50;;;;;;5053988;28;20017;-51
2021/12/05 11:49:21;;;;;;;6.70;2.42;;;23.70;34.30;;;;;;5055993;28;20033;-46
2021/12/05 11:51:53;;;;;;;4.53;2.22;;;23.70;34.20;;;;;;5055584;28;20021;-54
2021/12/05 11:54:24;;;;;;;5.90;2.65;;;23.70;34.00;;;;;;5056109;28;20316;-51
2021/12/05 11:57:06;;;;;;;5.00;2.60;;;23.70;34.30;;;;;;5022992;28;20060;-50
2021/12/05 11:59:35;;;;;;;7.97;2.90;;;23.70;34.70;;;;;;5040723;28;20100;-54
2021/12/05 12:02:13;;;;;;;6.47;3.22;;;23.70;34.70;;;;;;5036104;28;20107;-48
2021/12/05 12:04:39;;;;;;;5.57;2.53;;;23.70;34.60;;;;;;5038547;28;20309;-51
2021/12/05 12:07:28;;;;;;;3.92;2.15;;;23.70;35.10;;;;;;5032301;28;20028;-51
2021/12/05 12:10:17;;;;;;;4.75;1.70;;;23.70;34.10;;;;;;5038931;28;20037;-51
2021/12/05 12:12:47;;;;;;;4.07;2.17;;;23.60;33.90;;;;;;5054467;28;20037;-46
2021/12/05 12:15:15;;;;;;;3.63;1.65;;;23.60;33.70;;;;;;5055339;28;20452;-52
2021/12/05 12:17:42;;;;;;;3.45;1.35;;;23.60;33.60;;;;;;5054802;28;20431;-56
2021/12/05 12:20:11;;;;;;;3.60;1.50;;;23.60;33.60;;;;;;5048458;28;20106;-49
2021/12/05 12:22:38;;;;;;;2.90;1.52;;;23.60;33.70;;;;;;5053559;28;20025;-56
2021/12/05 12:25:10;;;;;;;3.38;1.50;;;23.70;33.80;;;;;;5054223;28;20324;-55
2021/12/05 12:27:36;;;;;;;2.33;1.40;;;23.70;33.70;;;;;;5051582;28;20025;-57
2021/12/05 12:30:05;;;;;;;4.10;1.48;;;23.80;33.70;;;;;;5054782;28;20029;-48
2021/12/05 12:32:40;;;;;;;1.52;1.10;;;23.80;33.60;;;;;;5038014;28;20025;-53
2021/12/05 12:35:15;;;;;;;3.13;1.35;;;23.90;33.50;;;;;;5051248;28;20025;-50
2021/12/05 12:37:57;;;;;;;3.58;1.38;;;23.90;33.50;;;;;;5051340;28;20105;-53
2021/12/05 12:40:37;;;;;;;3.22;1.25;;;24.00;33.40;;;;;;5044985;28;20035;-51
2021/12/05 12:43:06;;;;;;;2.08;1.20;;;24.10;33.30;;;;;;5034904;28;20108;-47
2021/12/05 12:45:39;;;;;;;1.85;1.00;;;24.10;33.30;;;;;;5039339;28;20035;-51
2021/12/05 12:48:15;;;;;;;1.05;0.85;;;24.10;33.10;;;;;;5034802;28;20072;-49
2021/12/05 12:50:53;;;;;;;3.13;0.77;;;24.10;33.00;;;;;;5040886;28;20022;-48
2021/12/05 12:53:37;;;;;;;2.33;1.10;;;24.10;32.80;;;;;;5050428;28;20082;-47
2021/12/05 12:56:17;;;;;;;1.95;0.82;;;24.10;32.60;;;;;;5040208;28;20045;-51
2021/12/05 12:58:55;;;;;;;1.27;0.75;;;24.10;32.50;;;;;;5050116;28;20102;-51
2021/12/05 13:12:48;;;;;;;1.92;1.00;;;24.00;32.10;;;;;;5035535;28;20094;-53
2021/12/05 13:15:17;;;;;;;1.58;0.60;;;24.00;32.20;;;;;;5053239;28;20055;-45
2021/12/05 13:18:00;;;;;;;1.23;0.65;;;24.00;32.80;;;;;;5053178;28;20096;-48
2021/12/05 13:20:46;;;;;;;0.90;0.60;;;24.00;32.10;;;;;;5040826;28;20124;-48
2021/12/05 13:23:17;;;;;;;1.05;0.70;;;23.90;32.00;;;;;;5053464;28;20029;-47
2021/12/05 13:26:02;;;;;;;1.08;0.57;;;23.90;31.90;;;;;;5053320;28;20446;-53
2021/12/05 13:28:31;;;;;;;1.20;0.60;;;24.00;31.80;;;;;;5053582;28;20033;-50
2021/12/05 13:30:58;;;;;;;1.70;0.70;;;23.90;31.80;;;;;;5045318;28;20025;-51
2021/12/05 13:33:28;;;;;;;0.85;0.60;;;23.90;31.80;;;;;;5052961;28;20025;-48
2021/12/05 13:35:58;;;;;;;1.40;0.77;;;24.00;31.80;;;;;;5034071;28;20045;-46
2021/12/05 13:38:42;;;;;;;1.35;0.82;;;23.90;31.70;;;;;;5037062;28;20433;-47
2021/12/05 13:41:12;;;;;;;1.00;0.50;;;24.00;31.60;;;;;;5048203;28;20080;-48
2021/12/05 13:43:38;;;;;;;1.05;0.70;;;24.00;31.60;;;;;;5038615;28;20159;-46
2021/12/05 13:46:31;;;;;;;1.88;0.70;;;24.00;31.50;;;;;;5043030;28;20521;-49
2021/12/05 13:48:58;;;;;;;0.93;0.47;;;24.00;31.40;;;;;;5041989;28;20037;-46
2021/12/05 13:51:25;;;;;;;0.93;0.63;;;24.00;31.40;;;;;;5053446;28;20036;-48
2021/12/05 13:53:55;;;;;;;1.50;0.70;;;24.00;31.30;;;;;;5045793;28;20041;-49
2021/12/05 13:56:24;;;;;;;0.90;0.55;;;24.00;31.30;;;;;;5052076;28;20041;-44
2021/12/05 13:58:56;;;;;;;0.60;0.50;;;24.00;31.30;;;;;;5052194;28;20025;-47
2021/12/05 14:01:34;;;;;;;1.25;0.57;;;24.00;31.20;;;;;;5043256;28;20029;-53
2021/12/05 14:04:23;;;;;;;2.08;0.55;;;24.00;31.30;;;;;;5053748;28;20027;-47
2021/12/05 14:06:54;;;;;;;1.65;0.80;;;24.00;31.40;;;;;;5045709;28;20033;-51
2021/12/05 14:09:33;;;;;;;1.77;0.60;;;24.00;31.50;;;;;;5046545;28;20021;-47
2021/12/05 14:12:04;;;;;;;1.23;0.80;;;24.00;31.50;;;;;;5045584;28;20436;-53
2021/12/05 14:14:39;;;;;;;2.28;0.50;;;24.00;31.60;;;;;;5040033;28;20084;-54
2021/12/05 14:17:10;;;;;;;1.45;0.52;;;24.00;31.60;;;;;;5047705;28;20344;-57
2021/12/05 14:19:38;;;;;;;1.52;0.60;;;24.00;31.70;;;;;;5050245;28;20040;-55
2021/12/05 14:22:06;;;;;;;1.13;0.50;;;24.00;31.90;;;;;;5026937;28;20094;-53
2021/12/05 14:24:35;;;;;;;2.15;0.50;;;24.00;32.00;;;;;;5040149;28;20021;-53
2021/12/05 14:27:06;;;;;;;1.58;0.60;;;24.00;32.70;;;;;;5052995;28;20036;-47
2021/12/05 14:29:33;;;;;;;1.23;0.50;;;24.10;32.00;;;;;;5042748;28;20033;-54
2021/12/05 14:32:07;;;;;;;1.20;0.50;;;24.10;31.90;;;;;;5041588;28;20063;-50
2021/12/05 14:34:34;;;;;;;1.27;0.60;;;24.10;31.90;;;;;;5049622;28;20056;-47
2021/12/05 14:37:08;;;;;;;1.92;0.55;;;24.10;31.80;;;;;;5038954;28;20053;-48
2021/12/05 14:39:33;;;;;;;0.63;0.35;;;24.10;31.60;;;;;;5043249;28;20116;-46
2021/12/05 14:42:06;;;;;;;2.45;0.60;;;24.10;31.50;;;;;;5050557;28;20104;-54
2021/12/05 14:44:33;;;;;;;1.60;0.60;;;24.20;31.50;;;;;;5051063;28;20024;-55
2021/12/05 14:47:07;;;;;;;1.60;0.63;;;24.20;31.50;;;;;;5051379;28;20021;-56
2021/12/05 14:49:43;;;;;;;1.55;0.60;;;24.20;31.50;;;;;;5025997;28;20021;-53
2021/12/05 14:52:15;;;;;;;2.10;0.50;;;24.20;31.70;;;;;;5050841;28;20025;-46
2021/12/05 14:54:42;;;;;;;0.90;0.60;;;24.20;31.80;;;;;;5047866;28;20456;-48
2021/12/05 14:57:21;;;;;;;2.05;0.80;;;24.20;31.90;;;;;;5048068;28;20037;-45
2021/12/05 14:59:49;;;;;;;1.45;0.52;;;24.20;32.00;;;;;;5046581;28;20104;-45
2021/12/05 15:02:18;;;;;;;0.60;0.55;;;24.20;32.10;;;;;;5047529;28;20021;-47
2021/12/05 15:04:50;;;;;;;3.13;0.85;;;24.30;32.10;;;;;;5038810;28;20317;-49
2021/12/05 15:07:18;;;;;;;3.05;0.68;;;24.30;32.10;;;;;;5046592;28;20032;-45
2021/12/05 15:09:48;;;;;;;1.25;0.52;;;24.30;32.10;;;;;;5037179;28;20333;-48
2021/12/05 15:12:18;;;;;;;0.80;0.47;;;24.30;32.10;;;;;;5042375;28;20025;-46
2021/12/05 15:14:50;;;;;;;1.38;0.60;;;24.30;32.00;;;;;;5037482;28;20025;-51
2021/12/05 15:17:28;;;;;;;0.52;0.45;;;24.30;32.00;;;;;;5046846;28;20435;-50
2021/12/05 15:19:57;;;;;;;1.05;0.55;;;24.20;31.70;;;;;;5053761;28;20024;-50
2021/12/05 15:22:25;;;;;;;1.23;0.60;;;24.20;31.70;;;;;;5046088;28;20340;-51
2021/12/05 15:24:56;;;;;;;1.45;0.57;;;24.20;31.60;;;;;;5038074;28;20021;-53
2021/12/05 15:27:26;;;;;;;0.68;0.50;;;24.10;31.50;;;;;;5045819;28;20056;-48
2021/12/05 15:30:19;;;;;;;1.20;0.75;;;24.10;31.50;;;;;;5049044;28;20064;-50
2021/12/05 15:32:49;;;;;;;1.10;0.52;;;24.00;31.40;;;;;;5039082;28;20357;-48
2021/12/05 15:35:17;;;;;;;0.50;0.50;;;24.00;31.40;;;;;;5039678;28;20427;-46
2021/12/05 15:37:48;;;;;;;2.10;0.68;;;23.90;31.30;;;;;;5048403;28;20451;-49
2021/12/05 15:40:16;;;;;;;0.98;0.60;;;24.00;31.30;;;;;;5051874;28;20095;-50
2021/12/05 15:42:42;;;;;;;1.00;0.63;;;23.90;31.80;;;;;;5037023;28;20045;-50
2021/12/05 15:45:13;;;;;;;1.38;0.73;;;23.90;31.10;;;;;;5042575;28;20044;-47
2021/12/05 15:47:40;;;;;;;0.90;0.60;;;23.90;31.00;;;;;;5046475;28;20033;-50
2021/12/05 15:50:06;;;;;;;1.23;0.80;;;23.90;31.00;;;;;;5048699;28;20333;-47
2021/12/05 15:52:41;;;;;;;1.02;0.68;;;23.90;31.00;;;;;;5037479;28;20407;-47
2021/12/05 15:55:20;;;;;;;1.38;0.85;;;23.90;30.90;;;;;;5045733;28;20163;-45
2021/12/05 15:57:52;;;;;;;1.42;0.85;;;23.90;30.90;;;;;;5048665;28;20032;-46
2021/12/05 16:00:21;;;;;;;2.10;1.00;;;23.90;30.80;;;;;;5051990;28;20032;-49
2021/12/05 16:02:54;;;;;;;0.88;0.70;;;23.80;30.70;;;;;;5039264;28;20044;-48
2021/12/05 16:05:22;;;;;;;2.42;0.95;;;23.80;30.70;;;;;;5037511;28;20380;-48
2021/12/05 16:07:49;;;;;;;1.65;1.05;;;23.80;30.70;;;;;;5049166;28;20462;-48
2021/12/05 16:10:22;;;;;;;1.52;1.05;;;23.70;30.70;;;;;;5052410;28;20017;-54
2021/12/05 16:12:52;;;;;;;1.95;0.98;;;23.70;30.60;;;;;;5044054;28;20025;-48
2021/12/05 16:15:20;;;;;;;1.77;1.20;;;23.60;30.60;;;;;;5048798;28;20041;-50
2021/12/05 16:17:54;;;;;;;2.10;1.13;;;23.50;30.60;;;;;;5049473;28;20032;-48
2021/12/05 16:20:35;;;;;;;2.03;1.30;;;23.50;30.70;;;;;;5047657;28;20029;-46
2021/12/05 16:23:35;;;;;;;2.03;1.23;;;23.40;30.70;;;;;;5042439;28;20119;-52
2021/12/05 16:26:13;;;;;;;1.80;1.38;;;23.40;30.70;;;;;;5043864;28;20108;-51
2021/12/05 16:28:43;;;;;;;2.10;1.23;;;23.30;30.60;;;;;;5043198;28;20029;-49
2021/12/05 16:31:35;;;;;;;2.35;1.50;;;23.30;30.60;;;;;;5034035;28;20045;-46
2021/12/05 16:34:24;;;;;;;2.35;1.20;;;23.30;30.60;;;;;;5046951;28;20112;-51
2021/12/05 16:36:56;;;;;;;1.63;1.13;;;23.20;30.60;;;;;;5040602;28;20049;-46
2021/12/05 16:39:42;;;;;;;2.55;1.45;;;23.20;30.50;;;;;;5044975;28;20440;-49
2021/12/05 16:42:12;;;;;;;2.40;1.65;;;23.20;30.50;;;;;;5040790;28;20033;-51
2021/12/05 16:44:40;;;;;;;2.13;1.35;;;23.20;30.60;;;;;;5046624;28;20545;-48
2021/12/05 16:47:10;;;;;;;1.80;1.23;;;23.10;30.50;;;;;;5038638;28;20033;-49
2021/12/05 16:49:41;;;;;;;2.13;1.65;;;23.10;30.50;;;;;;5040607;28;20021;-52
2021/12/05 16:52:14;;;;;;;1.80;1.38;;;23.00;30.50;;;;;;5048099;28;20503;-47
2021/12/05 16:54:45;;;;;;;2.35;1.60;;;23.00;30.60;;;;;;5039489;28;20060;-49
2021/12/05 16:57:14;;;;;;;2.17;1.52;;;23.00;30.60;;;;;;5035045;28;20033;-46
2021/12/05 16:59:41;;;;;;;2.92;1.75;;;23.00;30.70;;;;;;5035960;28;20113;-47
2021/12/05 17:02:22;;;;;;;2.42;1.52;;;23.00;30.70;;;;;;5037231;28;20028;-48
2021/12/05 17:05:04;;;;;;;1.88;1.45;;;23.00;30.70;;;;;;5029831;28;20032;-49
2021/12/05 17:08:09;;;;;;;1.77;1.30;;;23.00;30.70;;;;;;5046799;28;20021;-45
2021/12/05 17:10:44;;;;;;;;;;;23.00;30.80;;;;;;5027151;28;20451;-48
2021/12/05 17:13:37;;;;;;;1.73;1.15;;;22.90;30.80;;;;;;5043219;28;20296;-47
2021/12/05 17:16:11;;;;;;;2.25;1.42;;;22.90;30.80;;;;;;5024694;28;20036;-50
2021/12/05 17:18:44;;;;;;;3.03;1.58;;;22.90;30.90;;;;;;5046030;28;20029;-49
2021/12/05 17:21:24;;;;;;;2.30;1.70;;;22.90;30.90;;;;;;5043207;28;20017;-46
2021/12/05 17:23:56;;;;;;;3.28;1.95;;;22.90;30.90;;;;;;5037383;28;20047;-54
2021/12/05 17:26:27;;;;;;;2.45;1.67;;;22.80;30.90;;;;;;5048423;28;20076;-47
2021/12/05 17:29:19;;;;;;;2.20;1.50;;;22.80;30.90;;;;;;5052298;28;20297;-46
2021/12/05 17:31:47;;;;;;;2.67;1.50;;;22.80;30.90;;;;;;5041909;28;20040;-46
2021/12/05 17:34:23;;;;;;;4.65;2.03;;;22.80;31.00;;;;;;5043693;28;20036;-46
2021/12/05 17:36:58;;;;;;;2.75;1.65;;;22.80;31.00;;;;;;5054718;28;20043;-47
2021/12/05 17:39:38;;;;;;;3.17;2.10;;;22.80;31.00;;;;;;5049918;28;20017;-46
2021/12/05 17:42:07;;;;;;;2.35;1.52;;;22.70;31.00;;;;;;5052368;28;20209;-47
2021/12/05 17:44:34;;;;;;;3.75;1.75;;;22.70;31.10;;;;;;5048053;28;20029;-48
2021/12/05 17:47:04;;;;;;;2.75;1.73;;;22.70;31.10;;;;;;5046237;28;20029;-49
2021/12/05 17:49:32;;;;;;;2.85;1.80;;;22.70;31.10;;;;;;5044080;28;20029;-47
2021/12/05 17:51:59;;;;;;;2.13;1.35;;;22.70;31.10;;;;;;5046751;28;20100;-46
2021/12/05 17:54:38;;;;;;;2.67;1.70;;;22.70;31.10;;;;;;5019769;28;20036;-52
2021/12/05 17:57:12;;;;;;;1.88;1.25;;;22.60;31.10;;;;;;5043975;28;20029;-50
2021/12/05 18:00:00;;;;;;;2.35;1.52;;;22.60;31.20;;;;;;5050434;28;20025;-46
2021/12/05 18:02:43;;;;;;;2.83;1.55;;;22.60;31.20;;;;;;5025343;28;20021;-52
2021/12/05 18:05:44;;;;;;;1.95;1.50;;;22.60;31.20;;;;;;5048322;28;20451;-48
2021/12/05 18:08:18;;;;;;;2.50;1.30;;;22.60;31.20;;;;;;5039346;28;20088;-44
2021/12/05 18:10:48;;;;;;;2.80;1.70;;;22.60;31.20;;;;;;5041014;28;20024;-44
2021/12/05 18:13:16;;;;;;;2.08;1.40;;;22.60;31.20;;;;;;5050287;28;20048;-48
2021/12/05 18:15:48;;;;;;;2.80;1.42;;;22.60;31.20;;;;;;5040750;28;20748;-45
2021/12/05 18:18:16;;;;;;;3.50;1.60;;;22.60;31.20;;;;;;5039369;28;20029;-46
2021/12/05 18:20:43;;;;;;;2.10;1.63;;;22.60;31.20;;;;;;5040719;28;20052;-46
2021/12/05 18:23:10;;;;;;;2.97;1.73;;;22.60;31.20;;;;;;5036983;28;20033;-47
2021/12/05 18:25:39;;;;;;;2.33;1.75;;;22.60;31.20;;;;;;5050261;28;20029;-45
2021/12/05 18:28:05;;;;;;;2.25;1.60;;;22.60;31.20;;;;;;5050119;28;20341;-49
2021/12/05 18:30:31;;;;;;;2.90;1.83;;;22.60;31.20;;;;;;5046716;28;20167;-50
2021/12/05 18:32:59;;;;;;;3.15;1.92;;;22.60;31.20;;;;;;5036834;28;20025;-51
2021/12/05 18:35:31;;;;;;;2.28;1.73;;;22.60;31.20;;;;;;5026767;28;20348;-45
2021/12/05 18:38:05;;;;;;;2.50;1.80;;;22.60;31.20;;;;;;5053809;28;20032;-52